Archival Weather

Sydney Intl

Sydney, Australia (YSSY)

Report from: Friday, September 22, 2023 6:00 PM AEST
Current time: Sunday, February 25, 2024 2:13 AM AEDT

Current weather – Weather history – Daily summaries
Weather forecast

Temperature15.0°C (59.0°F)
Dew point7.0°C (44.6°F)
Winds 9 kts (4.6 m/s, 10.4 mph) South-Southeast (150°)
Visibility6.2 mi. (10 km)
Clouds Few clouds 3,000 ft. (914 m)
Altimeter30.36 in.Hg (1028 mB)
Relative humidity59 %
Density altitude-351 ft. (-107 m)
Flight conditions Visual Meteorological Conditions
Raw dataYSSY 220800Z 15009KT 9999 FEW030 15/07 Q1028
An error has occurred. This application may no longer respond until reloaded. Reload 🗙